Time;durP1;ratioP1;P1;durP2;ratioP2;P2;SDS_P1;SDS_P2;PMS_P1;PMS_P2;Temp;Humidity;BMP_temperature;BMP_pressure;BME280_temperature;BME280_humidity;BME280_pressure;Samples;Min_cycle;Max_cycle;Signal;HPM_P1;HPM_P2
2023/10/07 00:00:17;;;;;;;3.17;1.42;;;17.50;99.90;;;;;;4961156;28;20192;-75
2023/10/07 00:02:42;;;;;;;3.55;1.85;;;17.60;99.90;;;;;;4937396;28;20421;-76
2023/10/07 00:05:14;;;;;;;3.38;1.35;;;17.60;99.90;;;;;;4940439;28;20262;-74
2023/10/07 00:07:43;;;;;;;3.40;1.60;;;17.60;99.90;;;;;;4932620;28;20215;-75
2023/10/07 00:10:15;;;;;;;4.68;1.70;;;17.60;99.90;;;;;;4941183;28;20349;-75
2023/10/07 00:12:42;;;;;;;3.08;1.45;;;17.60;99.90;;;;;;4956320;28;20219;-76
2023/10/07 00:15:11;;;;;;;3.17;1.55;;;17.60;99.90;;;;;;4963061;28;20209;-75
2023/10/07 00:17:42;;;;;;;4.38;1.70;;;17.60;99.90;;;;;;4960734;28;20296;-76
2023/10/07 00:20:12;;;;;;;4.05;1.63;;;17.60;99.90;;;;;;4958290;28;20758;-74
2023/10/07 00:22:42;;;;;;;3.50;1.90;;;17.60;99.90;;;;;;4960808;28;20221;-76
2023/10/07 00:25:12;;;;;;;2.83;1.60;;;17.60;99.90;;;;;;4960771;28;20720;-76
2023/10/07 00:27:40;;;;;;;3.50;1.88;;;17.70;99.90;;;;;;4954085;28;20285;-76
2023/10/07 00:30:16;;;;;;;5.72;1.50;;;17.60;99.90;;;;;;4960950;28;20674;-76
2023/10/07 00:32:50;;;;;;;3.90;1.63;;;17.60;99.90;;;;;;4958077;28;20365;-75
2023/10/07 00:35:19;;;;;;;2.40;1.50;;;17.70;99.90;;;;;;4968815;28;20213;-75
2023/10/07 00:37:45;;;;;;;2.25;1.65;;;17.70;99.90;;;;;;4957150;28;20210;-76
2023/10/07 00:40:14;;;;;;;5.00;1.83;;;17.70;99.90;;;;;;4958973;28;20222;-76
2023/10/07 00:42:45;;;;;;;2.58;1.60;;;17.70;99.90;;;;;;4962782;28;20300;-75
2023/10/07 00:45:16;;;;;;;2.95;1.52;;;17.60;99.90;;;;;;4955328;28;20189;-75
2023/10/07 00:47:49;;;;;;;5.25;1.63;;;17.70;99.90;;;;;;4953139;28;20214;-75
2023/10/07 00:50:16;;;;;;;7.35;1.75;;;17.60;99.90;;;;;;4957570;28;20246;-75
2023/10/07 00:55:28;;;;;;;4.05;1.70;;;17.60;99.90;;;;;;4960225;28;20328;-75
2023/10/07 00:58:13;;;;;;;2.40;1.75;;;17.70;99.90;;;;;;4961879;28;20241;-75
2023/10/07 01:09:07;;;;;;;2.38;1.45;;;17.70;99.90;;;;;;4962493;28;20225;-75
2023/10/07 01:13:48;;;;;;;4.45;1.65;;;17.60;99.90;;;;;;4953557;28;20305;-75
2023/10/07 01:16:24;;;;;;;3.85;1.67;;;17.60;99.90;;;;;;4960935;28;20211;-75
2023/10/07 01:18:50;;;;;;;1.95;1.60;;;17.60;99.90;;;;;;4958147;28;20238;-75
2023/10/07 01:21:31;;;;;;;3.97;1.80;;;17.60;99.90;;;;;;4963656;28;20240;-75
2023/10/07 01:23:58;;;;;;;3.85;1.90;;;17.60;99.90;;;;;;4958117;28;20182;-75
2023/10/07 01:26:29;;;;;;;4.55;1.65;;;17.60;99.90;;;;;;4963385;28;20241;-75
2023/10/07 01:29:02;;;;;;;4.57;1.70;;;17.60;99.90;;;;;;4965608;28;20199;-75
2023/10/07 01:31:29;;;;;;;2.40;1.40;;;17.60;99.90;;;;;;4965513;28;20229;-75
2023/10/07 01:34:00;;;;;;;4.40;1.70;;;17.60;99.90;;;;;;4961047;28;20301;-75
2023/10/07 01:36:26;;;;;;;4.20;1.77;;;17.60;99.90;;;;;;4951589;28;20203;-75
2023/10/07 01:38:53;;;;;;;3.08;1.63;;;17.60;99.90;;;;;;4966899;28;20823;-75
2023/10/07 01:41:20;;;;;;;3.40;2.13;;;17.60;99.90;;;;;;4961607;28;20775;-75
2023/10/07 01:44:04;;;;;;;4.28;1.73;;;17.60;99.90;;;;;;4963124;28;20771;-75
2023/10/07 01:46:32;;;;;;;4.85;2.05;;;17.60;99.90;;;;;;4961125;28;20677;-76
2023/10/07 01:49:01;;;;;;;4.50;1.85;;;17.60;99.90;;;;;;4970013;28;20242;-74
2023/10/07 01:51:28;;;;;;;7.30;1.92;;;17.60;99.90;;;;;;4965641;28;20623;-75
2023/10/07 01:53:56;;;;;;;3.70;1.60;;;17.60;99.90;;;;;;4960191;28;20270;-73
2023/10/07 01:56:26;;;;;;;2.97;1.55;;;17.60;99.90;;;;;;4953839;28;20215;-75
2023/10/07 01:58:52;;;;;;;4.05;1.80;;;17.70;99.90;;;;;;4958171;28;20760;-75
2023/10/07 02:01:19;;;;;;;3.17;1.50;;;17.60;99.90;;;;;;4961734;28;20226;-75
2023/10/07 02:03:46;;;;;;;2.40;1.63;;;17.60;99.90;;;;;;4964992;28;20230;-75
2023/10/07 02:06:17;;;;;;;5.75;1.95;;;17.60;99.90;;;;;;4966832;28;20171;-75
2023/10/07 02:08:44;;;;;;;4.55;2.20;;;17.60;99.90;;;;;;4958449;28;20302;-75
2023/10/07 02:11:10;;;;;;;4.18;1.65;;;17.70;99.90;;;;;;4951987;28;20218;-74
2023/10/07 02:13:35;;;;;;;3.03;1.52;;;17.60;99.90;;;;;;4958949;28;20218;-75
2023/10/07 02:16:05;;;;;;;5.43;2.17;;;17.70;99.90;;;;;;4963228;28;20218;-75
2023/10/07 02:18:35;;;;;;;3.83;2.45;;;17.70;99.90;;;;;;4961495;28;20190;-76
2023/10/07 02:21:07;;;;;;;5.32;1.63;;;17.70;99.90;;;;;;4961651;28;20261;-75
2023/10/07 02:23:45;;;;;;;3.08;1.73;;;17.60;99.90;;;;;;4960289;28;20202;-75
2023/10/07 02:26:19;;;;;;;2.60;1.58;;;17.60;99.90;;;;;;4962375;28;20256;-75
2023/10/07 02:28:52;;;;;;;3.58;1.95;;;17.70;99.90;;;;;;4971576;28;20237;-75
2023/10/07 02:31:19;;;;;;;2.42;1.67;;;17.70;99.90;;;;;;4952117;28;20215;-75
2023/10/07 02:33:53;;;;;;;3.08;2.00;;;17.60;99.90;;;;;;4963633;28;20217;-74
2023/10/07 02:36:31;;;;;;;4.55;2.05;;;17.60;99.90;;;;;;4965001;28;20183;-76
2023/10/07 02:39:18;;;;;;;3.42;2.17;;;17.60;99.90;;;;;;4964137;28;20194;-75
2023/10/07 02:41:47;;;;;;;6.07;1.77;;;17.60;99.90;;;;;;4960146;28;20764;-72
2023/10/07 02:44:17;;;;;;;3.15;1.50;;;17.60;99.90;;;;;;4965412;28;20219;-75
2023/10/07 02:46:52;;;;;;;6.05;2.00;;;17.60;99.90;;;;;;4964342;28;20563;-75
2023/10/07 02:49:20;;;;;;;3.75;1.75;;;17.60;99.90;;;;;;4964280;28;20205;-75
2023/10/07 02:51:49;;;;;;;4.38;2.22;;;17.60;99.90;;;;;;4953352;28;20349;-74
2023/10/07 02:57:24;;;;;;;4.07;2.10;;;17.50;99.90;;;;;;4960387;28;20182;-76
2023/10/07 02:59:50;;;;;;;5.63;2.15;;;17.50;99.90;;;;;;4964972;28;20289;-75
2023/10/07 03:05:05;;;;;;;6.55;2.20;;;17.60;99.90;;;;;;4960756;28;20211;-74
2023/10/07 03:07:34;;;;;;;3.90;2.38;;;17.50;99.90;;;;;;4957457;28;20679;-74
2023/10/07 03:10:16;;;;;;;4.82;2.53;;;17.50;99.90;;;;;;4961503;28;20219;-74
2023/10/07 03:12:56;;;;;;;3.38;1.77;;;17.50;99.90;;;;;;4961409;28;20693;-74
2023/10/07 03:18:00;;;;;;;4.35;2.42;;;17.50;99.90;;;;;;5002932;23;20221;-72
2023/10/07 03:20:31;;;;;;;7.95;2.30;;;17.40;99.90;;;;;;4994345;28;20711;-73
2023/10/07 03:23:25;;;;;;;6.05;2.03;;;17.40;99.90;;;;;;4990993;28;20268;-72
2023/10/07 03:28:20;;;;;;;5.75;2.70;;;17.50;99.90;;;;;;4977459;28;20210;-72
2023/10/07 03:30:51;;;;;;;3.05;1.83;;;17.50;99.90;;;;;;4983771;28;20246;-73
2023/10/07 03:33:24;;;;;;;4.00;2.10;;;17.50;99.90;;;;;;4958871;28;20689;-71
2023/10/07 03:38:25;;;;;;;7.70;2.40;;;17.50;99.90;;;;;;4975910;28;20221;-73
2023/10/07 03:40:55;;;;;;;3.83;2.03;;;17.50;99.90;;;;;;4966500;28;20868;-71
2023/10/07 03:43:27;;;;;;;4.43;1.95;;;17.40;99.90;;;;;;4971317;28;20289;-73
2023/10/07 03:45:57;;;;;;;3.42;2.15;;;17.50;99.90;;;;;;4964847;28;20241;-73
2023/10/07 03:48:23;;;;;;;3.90;2.05;;;17.50;99.90;;;;;;4973074;28;20201;-73
2023/10/07 03:50:59;;;;;;;4.80;2.72;;;17.50;99.90;;;;;;4971626;28;20228;-73
2023/10/07 03:53:44;;;;;;;3.10;2.20;;;17.50;99.90;;;;;;4971772;28;20698;-73
2023/10/07 03:56:10;;;;;;;3.53;2.00;;;17.50;99.90;;;;;;4965974;28;20424;-72
2023/10/07 03:58:43;;;;;;;4.25;2.22;;;17.50;99.90;;;;;;4970174;28;20226;-72
2023/10/07 04:01:19;;;;;;;4.93;2.20;;;17.50;99.90;;;;;;4985633;28;20219;-71
2023/10/07 04:03:52;;;;;;;3.15;1.80;;;17.40;99.90;;;;;;4970913;28;20221;-73
2023/10/07 04:06:19;;;;;;;5.47;2.22;;;17.40;99.90;;;;;;4965314;28;20209;-73
2023/10/07 04:08:52;;;;;;;3.45;1.98;;;17.40;99.90;;;;;;4967342;28;20589;-73
2023/10/07 04:11:28;;;;;;;4.35;2.10;;;17.40;99.90;;;;;;4962526;28;20229;-73
2023/10/07 04:13:55;;;;;;;3.90;2.38;;;17.50;99.90;;;;;;4959325;28;20314;-71
2023/10/07 04:16:24;;;;;;;3.60;1.80;;;17.40;99.90;;;;;;4959098;28;20210;-72
2023/10/07 04:18:50;;;;;;;3.85;1.80;;;17.40;99.90;;;;;;4972461;28;20284;-72
2023/10/07 04:21:17;;;;;;;3.83;2.10;;;17.40;99.90;;;;;;4972681;28;20265;-73
2023/10/07 04:23:44;;;;;;;3.15;1.90;;;17.40;99.90;;;;;;4972060;28;20190;-73
2023/10/07 04:26:14;;;;;;;5.68;2.38;;;17.40;99.90;;;;;;4976990;28;20202;-72
2023/10/07 04:28:40;;;;;;;5.82;1.95;;;17.40;99.90;;;;;;4968091;28;20356;-73
2023/10/07 04:31:12;;;;;;;4.03;2.08;;;17.40;99.90;;;;;;4971251;28;20313;-73
2023/10/07 04:33:40;;;;;;;5.07;2.17;;;17.40;99.90;;;;;;4963686;28;20296;-73
2023/10/07 04:36:14;;;;;;;4.15;1.95;;;17.40;99.90;;;;;;4966844;28;20191;-73
2023/10/07 04:38:52;;;;;;;4.05;2.38;;;17.40;99.90;;;;;;4966047;28;20214;-73
2023/10/07 04:43:58;;;;;;;6.60;2.58;;;17.40;99.90;;;;;;4958249;28;20234;-73
2023/10/07 04:46:33;;;;;;;5.47;1.95;;;17.40;99.90;;;;;;4963591;28;20267;-72
2023/10/07 04:49:12;;;;;;;4.68;2.60;;;17.40;99.90;;;;;;4959837;28;20230;-72
2023/10/07 04:54:07;;;;;;;3.75;2.42;;;17.40;99.90;;;;;;4971733;28;20262;-73
2023/10/07 04:56:33;;;;;;;2.85;1.70;;;17.40;99.90;;;;;;4971852;28;20210;-72
2023/10/07 04:59:00;;;;;;;2.90;1.85;;;17.30;99.90;;;;;;4970589;28;20241;-72
2023/10/07 05:01:31;;;;;;;5.43;2.35;;;17.40;99.90;;;;;;4969300;28;20218;-72
2023/10/07 05:04:05;;;;;;;3.42;1.98;;;17.40;99.90;;;;;;4981114;28;20297;-70
2023/10/07 05:06:34;;;;;;;7.45;2.03;;;17.40;99.90;;;;;;4970292;28;20182;-73
2023/10/07 05:09:10;;;;;;;6.53;2.13;;;17.40;99.90;;;;;;4965331;28;20243;-72
2023/10/07 05:11:57;;;;;;;5.03;2.15;;;17.30;99.90;;;;;;4966480;28;20216;-71
2023/10/07 05:14:24;;;;;;;5.32;2.05;;;17.20;99.90;;;;;;4962340;28;20693;-73
2023/10/07 05:16:51;;;;;;;3.78;2.45;;;17.20;99.90;;;;;;4961084;28;20611;-73
2023/10/07 05:19:22;;;;;;;3.40;2.58;;;17.20;99.90;;;;;;4954479;28;20218;-72
2023/10/07 05:24:38;;;;;;;3.42;2.33;;;17.20;99.90;;;;;;4947810;28;20225;-73
2023/10/07 05:27:04;;;;;;;6.25;2.40;;;17.30;99.90;;;;;;4964693;28;20191;-73
2023/10/07 05:29:31;;;;;;;4.30;2.13;;;17.20;99.90;;;;;;4972928;28;20288;-73
2023/10/07 05:31:57;;;;;;;4.13;2.42;;;17.30;99.90;;;;;;4987832;28;20238;-73
2023/10/07 05:34:29;;;;;;;5.88;2.03;;;17.30;99.90;;;;;;4970850;28;20832;-74
2023/10/07 05:37:04;;;;;;;3.25;2.20;;;17.30;99.90;;;;;;4973696;28;20248;-72
2023/10/07 05:39:32;;;;;;;4.63;2.20;;;17.30;99.90;;;;;;4971642;28;20694;-74
2023/10/07 05:41:58;;;;;;;7.65;2.40;;;17.30;99.90;;;;;;4967159;28;20290;-72
2023/10/07 05:44:24;;;;;;;7.43;3.15;;;17.30;99.90;;;;;;4962175;28;20206;-73
2023/10/07 05:46:50;;;;;;;2.85;2.08;;;17.40;99.90;;;;;;4959307;28;20280;-74
2023/10/07 05:49:16;;;;;;;3.22;1.85;;;17.40;99.90;;;;;;4964565;28;20359;-73
2023/10/07 05:51:44;;;;;;;5.22;2.13;;;17.40;99.90;;;;;;4963452;28;20709;-74
2023/10/07 05:54:10;;;;;;;4.18;2.28;;;17.40;99.90;;;;;;4947131;28;20208;-73
2023/10/07 05:56:35;;;;;;;5.63;2.17;;;17.30;99.90;;;;;;4964888;28;20233;-74
2023/10/07 05:59:01;;;;;;;3.25;2.03;;;17.30;99.90;;;;;;4962048;28;20322;-73
2023/10/07 06:01:27;;;;;;;2.92;2.30;;;17.40;99.90;;;;;;4963777;28;20222;-74
2023/10/07 06:03:53;;;;;;;7.78;2.70;;;17.40;99.90;;;;;;4961145;28;20207;-72
2023/10/07 06:06:20;;;;;;;2.58;2.00;;;17.30;99.90;;;;;;4965906;28;20171;-74
2023/10/07 06:08:46;;;;;;;5.97;2.25;;;17.30;99.90;;;;;;4971959;28;20213;-73
2023/10/07 06:11:12;;;;;;;4.13;2.22;;;17.30;99.90;;;;;;4985585;28;20701;-73
2023/10/07 06:13:40;;;;;;;2.78;1.90;;;17.30;99.90;;;;;;4973359;28;20595;-74
2023/10/07 06:16:07;;;;;;;3.72;2.30;;;17.30;99.90;;;;;;4987691;28;20305;-73
2023/10/07 06:18:33;;;;;;;6.85;3.08;;;17.20;99.90;;;;;;4975302;28;20218;-74
2023/10/07 06:21:17;;;;;;;4.22;1.98;;;17.30;99.90;;;;;;4972031;28;20197;-72
2023/10/07 06:23:43;;;;;;;3.40;2.17;;;17.20;99.90;;;;;;4974217;28;20202;-74
2023/10/07 06:26:09;;;;;;;5.80;2.70;;;17.20;99.90;;;;;;4968837;28;20210;-72
2023/10/07 06:28:35;;;;;;;3.28;2.25;;;17.20;99.90;;;;;;4956228;28;20214;-73
2023/10/07 06:31:11;;;;;;;4.30;2.50;;;17.20;99.90;;;;;;4966419;28;20785;-73
2023/10/07 06:33:47;;;;;;;4.55;2.65;;;17.20;99.90;;;;;;4967051;28;20692;-73
2023/10/07 06:36:14;;;;;;;8.32;2.67;;;17.10;99.90;;;;;;4963758;28;20183;-72
2023/10/07 06:38:45;;;;;;;4.47;2.55;;;17.10;99.90;;;;;;4979632;28;20226;-73
2023/10/07 06:41:12;;;;;;;2.65;2.15;;;17.20;99.90;;;;;;4966205;28;20222;-72
2023/10/07 06:43:42;;;;;;;4.93;2.42;;;17.20;99.90;;;;;;4975714;28;20299;-74
2023/10/07 06:46:11;;;;;;;7.20;2.40;;;17.20;99.90;;;;;;4969460;28;20218;-72
2023/10/07 06:48:40;;;;;;;6.30;2.40;;;17.10;99.90;;;;;;4964200;28;20301;-74
2023/10/07 06:51:10;;;;;;;6.65;2.58;;;17.10;99.90;;;;;;4984921;28;20185;-74
2023/10/07 06:53:42;;;;;;;5.63;3.13;;;17.10;99.90;;;;;;4968654;28;20254;-73
2023/10/07 06:56:21;;;;;;;5.35;2.83;;;17.10;99.90;;;;;;4964734;28;20712;-71
2023/10/07 06:58:54;;;;;;;5.22;2.65;;;17.10;99.90;;;;;;4972332;28;20226;-73
2023/10/07 07:01:35;;;;;;;5.72;2.70;;;17.10;99.90;;;;;;4966606;28;20309;-72
2023/10/07 07:04:09;;;;;;;7.57;2.83;;;17.10;99.90;;;;;;4966501;28;20214;-73
2023/10/07 07:06:42;;;;;;;4.53;2.80;;;17.20;99.90;;;;;;4969500;28;20288;-73
2023/10/07 07:12:10;;;;;;;2.70;2.28;;;17.10;99.90;;;;;;4969581;28;20285;-74
2023/10/07 07:14:36;;;;;;;5.63;2.58;;;17.10;99.90;;;;;;4970469;28;20302;-73
2023/10/07 07:20:19;;;;;;;3.90;2.33;;;17.10;99.90;;;;;;4974864;28;20228;-73
2023/10/07 07:22:45;;;;;;;4.18;2.42;;;17.00;99.90;;;;;;4974811;28;20229;-74
2023/10/07 07:27:48;;;;;;;5.97;2.58;;;17.10;99.90;;;;;;4971732;28;20221;-73
2023/10/07 07:30:31;;;;;;;7.00;3.20;;;17.10;99.90;;;;;;4972766;28;20780;-73
2023/10/07 07:33:06;;;;;;;5.00;2.70;;;17.10;99.90;;;;;;4965491;28;20596;-72
2023/10/07 07:35:39;;;;;;;4.75;2.95;;;17.10;99.90;;;;;;4965340;28;20202;-73
2023/10/07 07:38:30;;;;;;;4.32;2.60;;;17.10;99.90;;;;;;4961811;28;20215;-73
2023/10/07 07:41:05;;;;;;;6.68;2.95;;;17.20;99.90;;;;;;4946836;28;20199;-72
2023/10/07 07:43:38;;;;;;;6.28;2.92;;;17.20;99.90;;;;;;4960689;28;20700;-72
2023/10/07 07:48:43;;;;;;;3.33;2.00;;;17.20;99.90;;;;;;4952919;28;20637;-73
2023/10/07 07:51:11;;;;;;;4.93;2.63;;;17.20;99.90;;;;;;4976167;28;20568;-71
2023/10/07 07:53:39;;;;;;;5.22;2.78;;;17.30;99.90;;;;;;4982342;28;20243;-72
2023/10/07 07:56:08;;;;;;;3.45;2.58;;;17.30;99.90;;;;;;4978525;28;20210;-73
2023/10/07 07:58:37;;;;;;;4.22;2.70;;;17.20;99.90;;;;;;4981640;28;20205;-74
2023/10/07 08:01:05;;;;;;;4.05;2.38;;;17.30;99.90;;;;;;4970353;28;20215;-73
2023/10/07 08:03:35;;;;;;;5.90;2.38;;;17.40;99.90;;;;;;4977867;28;20183;-73
2023/10/07 08:06:06;;;;;;;3.60;2.40;;;17.40;99.90;;;;;;4967547;28;20912;-71
2023/10/07 08:08:36;;;;;;;7.25;2.22;;;17.50;99.90;;;;;;4972212;28;20325;-73
2023/10/07 08:11:02;;;;;;;4.10;2.33;;;17.40;99.90;;;;;;4965899;28;20602;-73
2023/10/07 08:13:28;;;;;;;4.22;2.38;;;17.40;99.90;;;;;;4964270;28;20629;-72
2023/10/07 08:15:54;;;;;;;6.60;2.90;;;17.40;99.90;;;;;;4949258;28;20349;-70
2023/10/07 08:18:28;;;;;;;3.53;2.20;;;17.50;99.90;;;;;;4964302;28;20302;-73
2023/10/07 08:21:08;;;;;;;2.10;1.58;;;17.50;99.90;;;;;;4964362;28;20173;-71
2023/10/07 08:23:37;;;;;;;4.63;2.10;;;17.40;99.90;;;;;;4969377;28;20294;-72
2023/10/07 08:26:13;;;;;;;4.85;2.15;;;17.40;99.90;;;;;;4969341;28;20202;-73
2023/10/07 08:28:45;;;;;;;4.10;1.90;;;17.50;99.90;;;;;;4965581;28;20271;-73
2023/10/07 08:31:19;;;;;;;3.53;2.35;;;17.40;99.90;;;;;;4959390;28;20218;-71
2023/10/07 08:34:09;;;;;;;5.20;2.28;;;17.40;99.90;;;;;;4977135;28;20595;-73
2023/10/07 08:36:43;;;;;;;3.47;2.30;;;17.40;99.90;;;;;;4975342;28;20207;-73
2023/10/07 08:39:09;;;;;;;4.28;1.92;;;17.40;99.90;;;;;;4972518;28;20174;-71
2023/10/07 08:41:40;;;;;;;6.32;2.10;;;17.40;99.90;;;;;;4970233;28;20258;-73
2023/10/07 08:44:15;;;;;;;3.40;2.60;;;17.50;99.90;;;;;;4975172;28;20246;-73
2023/10/07 08:46:56;;;;;;;3.95;2.40;;;17.40;99.90;;;;;;4968437;28;20700;-73
2023/10/07 08:49:26;;;;;;;4.70;2.55;;;17.50;99.90;;;;;;4965750;28;20236;-72
2023/10/07 08:51:56;;;;;;;3.95;2.30;;;17.50;99.90;;;;;;4965900;28;20202;-72
2023/10/07 08:54:26;;;;;;;5.25;2.30;;;17.50;99.90;;;;;;4969764;28;20264;-72
2023/10/07 08:56:58;;;;;;;4.45;2.50;;;17.50;99.90;;;;;;4971114;28;20677;-73
2023/10/07 08:59:30;;;;;;;2.75;2.33;;;17.60;99.90;;;;;;4963613;28;20302;-74
2023/10/07 09:02:00;;;;;;;3.67;2.72;;;17.60;99.90;;;;;;4965408;28;20225;-73
2023/10/07 09:04:32;;;;;;;7.72;2.88;;;17.60;99.90;;;;;;4961643;28;20244;-72
2023/10/07 09:07:08;;;;;;;3.22;2.63;;;17.70;99.90;;;;;;4968708;28;20214;-73
2023/10/07 09:09:38;;;;;;;3.72;2.28;;;17.60;99.90;;;;;;4965306;28;20395;-73
2023/10/07 09:12:14;;;;;;;3.17;2.30;;;17.70;99.90;;;;;;4974067;28;20585;-73
2023/10/07 09:14:52;;;;;;;6.18;2.88;;;17.60;99.90;;;;;;4972309;28;20209;-73
2023/10/07 09:17:21;;;;;;;4.60;2.85;;;17.60;99.90;;;;;;4973641;28;20222;-71
2023/10/07 09:19:53;;;;;;;3.65;2.67;;;17.70;99.90;;;;;;4971236;28;20241;-75
2023/10/07 09:22:33;;;;;;;6.07;2.80;;;17.70;99.90;;;;;;4968389;28;20214;-74
2023/10/07 09:25:17;;;;;;;6.25;2.90;;;17.60;99.90;;;;;;4973553;28;20217;-73
2023/10/07 09:27:56;;;;;;;4.15;2.72;;;17.60;99.90;;;;;;4966539;28;20237;-74
2023/10/07 09:30:36;;;;;;;4.00;2.42;;;17.60;99.90;;;;;;4965164;28;20186;-72
2023/10/07 09:33:12;;;;;;;6.90;2.72;;;17.70;99.90;;;;;;4966016;28;20175;-73
2023/10/07 09:35:42;;;;;;;5.95;3.67;;;17.70;99.90;;;;;;4965119;28;20218;-74
2023/10/07 09:38:27;;;;;;;7.53;3.50;;;17.70;99.90;;;;;;4969452;28;20210;-74
2023/10/07 09:43:27;;;;;;;5.00;3.22;;;17.60;99.90;;;;;;4960801;28;20274;-74
2023/10/07 09:45:53;;;;;;;7.18;3.05;;;17.60;99.90;;;;;;4969729;28;20210;-74
2023/10/07 09:48:31;;;;;;;4.07;2.80;;;17.60;99.90;;;;;;4979907;28;20210;-73
2023/10/07 09:51:02;;;;;;;5.18;3.22;;;17.60;99.90;;;;;;4963851;28;20183;-73
2023/10/07 09:53:36;;;;;;;6.57;2.85;;;17.60;99.90;;;;;;4974719;28;20210;-74
2023/10/07 09:56:19;;;;;;;4.30;3.33;;;17.60;99.90;;;;;;4978324;28;20212;-74
2023/10/07 09:58:59;;;;;;;7.70;3.10;;;17.60;99.90;;;;;;4975732;28;20218;-74
2023/10/07 10:01:45;;;;;;;4.88;3.35;;;17.60;99.90;;;;;;4986738;28;20313;-73
2023/10/07 10:04:32;;;;;;;6.68;3.95;;;17.60;99.90;;;;;;4969188;28;20581;-74
2023/10/07 10:07:12;;;;;;;5.97;3.85;;;17.50;99.90;;;;;;4971453;28;20210;-74
2023/10/07 10:12:28;;;;;;;8.73;4.43;;;17.50;99.90;;;;;;4977061;28;20580;-75
2023/10/07 10:14:56;;;;;;;7.68;5.20;;;17.50;99.90;;;;;;4971978;28;20221;-74
2023/10/07 10:17:48;;;;;;;5.72;4.28;;;17.50;99.90;;;;;;4963941;28;20242;-74
2023/10/07 10:20:18;;;;;;;7.63;4.28;;;17.50;99.90;;;;;;4966387;28;20708;-75
2023/10/07 10:22:57;;;;;;;6.30;4.15;;;17.50;99.90;;;;;;4986937;28;20700;-75
2023/10/07 10:28:03;;;;;;;9.43;4.97;;;17.50;99.90;;;;;;4974161;28;20214;-74
2023/10/07 10:30:29;;;;;;;8.63;4.90;;;17.50;99.90;;;;;;4967187;28;20219;-73
2023/10/07 10:33:00;;;;;;;7.68;5.28;;;17.50;99.90;;;;;;4972742;28;20178;-73
2023/10/07 10:35:27;;;;;;;8.23;4.78;;;17.50;99.90;;;;;;4977098;28;20207;-75
2023/10/07 10:37:59;;;;;;;8.32;4.70;;;17.60;99.90;;;;;;4973436;28;20749;-74
2023/10/07 10:40:31;;;;;;;9.52;4.93;;;17.60;99.90;;;;;;4966267;28;20892;-74
2023/10/07 10:42:57;;;;;;;7.40;5.30;;;17.60;99.90;;;;;;4969254;28;20588;-74
2023/10/07 10:45:25;;;;;;;5.88;5.25;;;17.50;99.90;;;;;;4968244;28;20217;-74
2023/10/07 10:47:54;;;;;;;7.30;5.22;;;17.50;99.90;;;;;;4968283;28;20206;-74
2023/10/07 10:50:23;;;;;;;9.00;5.63;;;17.60;99.90;;;;;;4965655;28;20685;-74
2023/10/07 10:52:50;;;;;;;10.05;5.45;;;17.60;99.90;;;;;;4966050;28;20318;-74
2023/10/07 10:55:16;;;;;;;6.13;5.18;;;17.60;99.90;;;;;;4964494;28;20624;-73
2023/10/07 10:57:42;;;;;;;7.85;6.10;;;17.60;99.90;;;;;;4964038;28;20223;-74
2023/10/07 11:00:19;;;;;;;9.82;6.07;;;17.50;99.90;;;;;;4985087;28;20185;-75
2023/10/07 11:02:46;;;;;;;13.15;5.30;;;17.40;99.90;;;;;;4980679;28;20308;-74
2023/10/07 11:05:15;;;;;;;8.52;5.55;;;17.50;99.90;;;;;;4978577;28;20301;-75
2023/10/07 11:07:42;;;;;;;7.82;6.05;;;17.50;99.90;;;;;;4971617;28;20232;-74
2023/10/07 11:10:10;;;;;;;9.32;6.13;;;17.50;99.90;;;;;;4975245;28;20592;-74
2023/10/07 11:12:37;;;;;;;10.43;5.95;;;17.50;99.90;;;;;;4985191;28;20214;-74
2023/10/07 11:15:07;;;;;;;8.52;6.28;;;17.60;99.90;;;;;;4974704;28;20185;-74
2023/10/07 11:17:38;;;;;;;8.70;5.60;;;17.60;99.90;;;;;;4985647;28;20241;-73
2023/10/07 11:20:08;;;;;;;8.23;5.68;;;17.60;99.90;;;;;;4970684;28;20647;-74
2023/10/07 11:22:38;;;;;;;8.07;5.72;;;17.60;99.90;;;;;;4968653;28;20217;-73
2023/10/07 11:25:06;;;;;;;8.18;5.63;;;17.60;99.90;;;;;;4971179;28;20226;-74
2023/10/07 11:27:32;;;;;;;9.32;6.03;;;17.70;99.90;;;;;;4969081;28;20212;-75
2023/10/07 11:30:01;;;;;;;8.88;6.03;;;17.60;99.90;;;;;;4984963;28;20237;-73
2023/10/07 11:32:33;;;;;;;7.45;5.50;;;17.60;99.90;;;;;;4959763;28;20214;-76
2023/10/07 11:34:59;;;;;;;8.32;5.57;;;17.60;99.90;;;;;;4966604;28;20271;-74
2023/10/07 11:37:27;;;;;;;7.72;6.10;;;17.60;99.90;;;;;;4974711;28;20214;-74
2023/10/07 11:39:53;;;;;;;8.90;6.25;;;17.60;99.90;;;;;;4973856;28;20211;-74
2023/10/07 11:42:21;;;;;;;7.53;5.97;;;17.60;99.90;;;;;;4974088;28;20233;-74
2023/10/07 11:44:56;;;;;;;7.93;6.05;;;17.60;99.90;;;;;;4971497;28;20190;-76
2023/10/07 11:47:27;;;;;;;11.93;6.55;;;17.70;99.90;;;;;;4974894;28;20609;-74
2023/10/07 11:49:53;;;;;;;9.02;6.82;;;17.60;99.90;;;;;;4971751;28;20223;-74
2023/10/07 11:52:21;;;;;;;9.82;6.63;;;17.70;99.90;;;;;;4971321;28;20225;-76
2023/10/07 11:54:49;;;;;;;14.00;6.75;;;17.70;99.90;;;;;;4970129;28;20635;-74
2023/10/07 11:57:17;;;;;;;12.38;6.93;;;17.80;99.90;;;;;;4970651;28;20704;-74
2023/10/07 11:59:44;;;;;;;9.07;7.13;;;17.70;99.90;;;;;;4967587;28;20207;-75
2023/10/07 12:02:11;;;;;;;10.27;6.88;;;17.70;99.90;;;;;;4965054;28;20218;-74
2023/10/07 12:04:44;;;;;;;11.02;6.63;;;17.70;99.90;;;;;;4978787;28;20974;-75
2023/10/07 12:07:14;;;;;;;8.35;6.80;;;17.50;99.90;;;;;;4966007;28;20747;-74
2023/10/07 12:09:40;;;;;;;12.38;7.50;;;17.50;99.90;;;;;;4962559;28;20585;-73
2023/10/07 12:12:09;;;;;;;9.05;6.85;;;17.40;99.90;;;;;;4968660;28;20205;-74
2023/10/07 12:14:36;;;;;;;11.25;6.97;;;17.30;99.90;;;;;;4970407;28;20210;-75
2023/10/07 12:17:03;;;;;;;10.90;7.20;;;17.20;99.90;;;;;;4975538;28;20217;-74
2023/10/07 12:19:30;;;;;;;10.30;7.35;;;17.20;99.90;;;;;;4965120;28;20262;-74
2023/10/07 12:21:57;;;;;;;9.63;6.85;;;17.20;99.90;;;;;;4972065;28;20230;-73
2023/10/07 12:24:22;;;;;;;10.35;8.00;;;17.10;99.90;;;;;;4969561;28;20178;-72
2023/10/07 12:26:51;;;;;;;11.38;7.35;;;17.20;99.90;;;;;;4971494;28;20678;-75
2023/10/07 12:29:19;;;;;;;9.55;7.05;;;17.10;99.90;;;;;;4965869;28;20298;-74
2023/10/07 12:31:47;;;;;;;9.68;6.88;;;17.20;99.90;;;;;;4968567;28;20225;-74
2023/10/07 12:34:15;;;;;;;10.77;6.80;;;17.20;99.90;;;;;;4968951;28;20198;-75
2023/10/07 12:36:42;;;;;;;12.38;7.22;;;17.20;99.90;;;;;;4962370;28;20266;-73
2023/10/07 12:39:11;;;;;;;10.57;7.00;;;17.20;99.90;;;;;;4965856;28;20653;-74
2023/10/07 12:41:38;;;;;;;9.70;6.32;;;17.30;99.90;;;;;;4976861;28;20235;-75
2023/10/07 12:44:08;;;;;;;15.90;7.18;;;17.30;99.90;;;;;;4965400;28;20237;-74
2023/10/07 12:46:35;;;;;;;8.95;5.93;;;17.30;99.90;;;;;;4960266;28;20306;-75
2023/10/07 12:49:01;;;;;;;8.43;5.75;;;17.30;99.90;;;;;;4972473;28;20292;-74
2023/10/07 12:51:27;;;;;;;10.43;6.13;;;17.40;99.90;;;;;;4969931;28;20629;-74
2023/10/07 12:53:56;;;;;;;8.85;5.80;;;17.50;99.90;;;;;;4969884;28;20197;-74
2023/10/07 12:56:22;;;;;;;9.05;6.47;;;17.50;99.90;;;;;;4964696;28;20272;-74
2023/10/07 12:58:48;;;;;;;11.43;7.03;;;17.50;99.90;;;;;;4984310;28;20214;-75
2023/10/07 13:01:14;;;;;;;8.90;5.88;;;17.50;99.90;;;;;;4972156;28;20308;-74
2023/10/07 13:03:43;;;;;;;11.35;6.38;;;17.60;99.90;;;;;;4971624;28;20257;-75
2023/10/07 13:06:15;;;;;;;10.43;5.85;;;17.60;99.90;;;;;;4969967;28;20261;-74
2023/10/07 13:08:40;;;;;;;9.60;6.35;;;17.60;99.90;;;;;;4972957;28;20272;-75
2023/10/07 13:11:13;;;;;;;12.02;6.80;;;17.60;99.90;;;;;;4967531;28;20210;-75
2023/10/07 13:13:46;;;;;;;9.15;5.60;;;17.60;99.90;;;;;;4983419;28;20214;-74
2023/10/07 13:16:13;;;;;;;7.93;4.82;;;17.60;99.90;;;;;;4973093;28;20206;-74
2023/10/07 13:18:40;;;;;;;10.45;5.80;;;17.60;99.90;;;;;;4965318;28;20237;-75
2023/10/07 13:21:18;;;;;;;6.35;5.03;;;17.70;99.90;;;;;;4968628;28;20173;-74
2023/10/07 13:23:47;;;;;;;10.07;5.45;;;17.70;99.90;;;;;;4968273;28;20626;-74
2023/10/07 13:26:14;;;;;;;7.82;5.55;;;17.70;99.90;;;;;;4975454;28;20594;-74
2023/10/07 13:28:40;;;;;;;9.48;5.35;;;17.70;99.90;;;;;;4975336;28;20214;-74
2023/10/07 13:31:08;;;;;;;8.85;6.38;;;17.70;99.90;;;;;;4962086;28;20217;-74
2023/10/07 13:33:36;;;;;;;14.38;6.57;;;17.70;99.90;;;;;;4983751;28;20217;-74
2023/10/07 13:36:06;;;;;;;13.93;5.60;;;17.70;99.90;;;;;;4972971;28;20187;-77
2023/10/07 13:38:32;;;;;;;7.95;5.22;;;17.80;99.90;;;;;;4977963;28;20221;-76
2023/10/07 13:40:58;;;;;;;6.60;4.63;;;17.80;99.90;;;;;;4975177;28;20218;-73
2023/10/07 13:43:26;;;;;;;10.25;5.38;;;17.80;99.90;;;;;;4971215;28;20240;-73
2023/10/07 13:45:53;;;;;;;8.80;5.03;;;17.90;99.90;;;;;;4968943;28;20219;-76
2023/10/07 13:48:18;;;;;;;8.90;5.78;;;17.80;99.90;;;;;;4972239;28;20607;-74
2023/10/07 13:50:46;;;;;;;7.93;4.43;;;18.00;99.90;;;;;;4975869;28;20189;-74
2023/10/07 13:53:12;;;;;;;12.43;4.95;;;17.90;99.90;;;;;;4971636;28;20293;-74
2023/10/07 13:58:13;;;;;;;5.82;4.28;;;18.00;99.90;;;;;;4968265;28;20222;-73